createdAt,value
2022-08-07T00:01:44.609Z,11.65
2022-08-07T00:04:09.637Z,14.15
2022-08-07T00:06:41.134Z,12.27
2022-08-07T00:09:22.171Z,12.40
2022-08-07T00:11:56.012Z,15.43
2022-08-07T00:14:30.550Z,12.90
2022-08-07T00:17:01.976Z,13.38
2022-08-07T00:19:59.540Z,13.23
2022-08-07T00:22:24.569Z,14.70
2022-08-07T00:25:04.878Z,14.18
2022-08-07T00:27:51.845Z,12.90
2022-08-07T00:30:21.920Z,13.55
2022-08-07T00:32:54.755Z,12.98
2022-08-07T00:35:23.153Z,12.65
2022-08-07T00:37:50.407Z,13.43
2022-08-07T00:40:36.521Z,13.82
2022-08-07T00:43:04.325Z,13.82
2022-08-07T00:45:36.719Z,15.85
2022-08-07T00:48:09.083Z,16.35
2022-08-07T00:50:46.161Z,14.60
2022-08-07T00:53:20.106Z,15.23
2022-08-07T00:56:02.383Z,15.38
2022-08-07T00:58:31.429Z,14.15
2022-08-07T01:00:58.412Z,14.38
2022-08-07T01:03:54.858Z,14.63
2022-08-07T01:06:12.325Z,15.68
2022-08-07T01:08:43.320Z,14.52
2022-08-07T01:12:04.425Z,15.70
2022-08-07T01:14:07.872Z,14.52
2022-08-07T01:16:36.655Z,15.73
2022-08-07T01:19:04.732Z,14.77
2022-08-07T01:21:41.400Z,15.63
2022-08-07T01:24:09.242Z,14.32
2022-08-07T01:26:36.820Z,16.63
2022-08-07T01:29:04.587Z,14.30
2022-08-07T01:31:42.465Z,15.00
2022-08-07T01:34:14.729Z,14.98
2022-08-07T01:36:41.928Z,15.73
2022-08-07T01:39:11.016Z,14.93
2022-08-07T01:42:01.711Z,17.02
2022-08-07T01:44:26.139Z,17.38
2022-08-07T01:46:53.275Z,16.50
2022-08-07T01:49:21.418Z,16.55
2022-08-07T01:52:01.694Z,16.67
2022-08-07T01:54:37.108Z,15.00
2022-08-07T01:57:08.413Z,17.33
2022-08-07T01:59:53.940Z,16.40
2022-08-07T02:03:11.334Z,14.52
2022-08-07T02:05:43.205Z,17.15
2022-08-07T02:08:10.899Z,15.23
2022-08-07T02:10:42.887Z,15.32
2022-08-07T02:13:10.851Z,13.80
2022-08-07T02:15:39.721Z,13.30
2022-08-07T02:18:10.015Z,14.85
2022-08-07T02:20:40.215Z,12.93
2022-08-07T02:23:11.195Z,15.07
2022-08-07T02:26:30.830Z,13.40
2022-08-07T02:28:29.557Z,10.90
2022-08-07T02:30:57.740Z,10.73
2022-08-07T02:33:32.724Z,10.57
2022-08-07T02:36:29.206Z,11.98
2022-08-07T02:39:01.555Z,9.57
2022-08-07T02:41:33.586Z,11.95
2022-08-07T02:44:05.153Z,8.40
2022-08-07T02:46:36.816Z,8.15
2022-08-07T02:49:05.591Z,8.40
2022-08-07T02:51:42.576Z,7.38
2022-08-07T02:54:20.628Z,10.68
2022-08-07T02:56:53.747Z,7.65
2022-08-07T02:59:27.725Z,5.75
2022-08-07T03:01:55.518Z,8.02
2022-08-07T03:04:23.603Z,5.80
2022-08-07T03:06:52.514Z,6.53
2022-08-07T03:09:43.443Z,5.40
2022-08-07T03:12:21.662Z,5.57
2022-08-07T03:14:52.294Z,5.18
2022-08-07T03:17:19.902Z,5.35
2022-08-07T03:19:54.840Z,7.93
2022-08-07T03:22:24.260Z,7.45
2022-08-07T03:24:57.304Z,7.20
2022-08-07T03:27:30.286Z,6.13
2022-08-07T03:30:10.841Z,5.47
2022-08-07T03:32:56.974Z,5.60
2022-08-07T03:35:27.577Z,5.20
2022-08-07T03:38:13.375Z,5.00
2022-08-07T03:40:40.302Z,8.45
2022-08-07T03:43:14.617Z,4.85
2022-08-07T03:45:43.688Z,9.50
2022-08-07T03:48:14.831Z,4.65
2022-08-07T03:50:43.187Z,4.35
2022-08-07T03:53:50.006Z,6.35
2022-08-07T03:56:10.600Z,5.40
2022-08-07T03:59:08.891Z,6.20
2022-08-07T04:01:30.197Z,6.60
2022-08-07T04:03:59.169Z,5.28
2022-08-07T04:06:36.182Z,5.80
2022-08-07T04:09:05.682Z,5.95
2022-08-07T04:12:27.984Z,7.57
2022-08-07T04:14:37.721Z,6.18
2022-08-07T04:17:19.770Z,6.43
2022-08-07T04:19:51.903Z,7.80
2022-08-07T04:22:23.575Z,5.80
2022-08-07T04:24:55.869Z,7.30
2022-08-07T04:27:25.634Z,7.53
2022-08-07T04:30:01.629Z,5.15
2022-08-07T04:32:34.733Z,5.88
2022-08-07T04:37:52.825Z,5.78
2022-08-07T04:40:20.510Z,7.32
2022-08-07T04:42:46.996Z,7.40
2022-08-07T04:45:52.141Z,5.63
2022-08-07T04:48:13.004Z,6.07
2022-08-07T04:50:52.161Z,6.82
2022-08-07T04:53:27.845Z,5.55
2022-08-07T04:58:12.230Z,6.55
2022-08-07T05:00:09.632Z,8.70
2022-08-07T05:05:11.548Z,7.55
2022-08-07T05:08:16.250Z,13.27
2022-08-07T05:10:50.844Z,8.10
2022-08-07T05:14:52.818Z,7.68
2022-08-07T05:16:29.397Z,6.78
2022-08-07T05:19:07.537Z,6.95
2022-08-07T05:21:58.976Z,7.15
2022-08-07T05:24:24.732Z,7.60
2022-08-07T05:26:59.668Z,9.35
2022-08-07T05:29:27.829Z,7.68
2022-08-07T05:32:15.520Z,7.10
2022-08-07T05:34:42.874Z,6.80
2022-08-07T05:37:10.641Z,9.50
2022-08-07T05:40:14.084Z,6.65
2022-08-07T05:42:34.291Z,6.97
2022-08-07T05:45:14.436Z,7.75
2022-08-07T05:48:01.571Z,6.32
2022-08-07T05:50:31.020Z,7.43
2022-08-07T05:52:58.021Z,6.80
2022-08-07T05:55:25.600Z,7.68
2022-08-07T05:58:12.991Z,6.93
2022-08-07T06:00:41.123Z,7.50
2022-08-07T06:03:15.568Z,9.73
2022-08-07T06:05:49.104Z,6.32
2022-08-07T06:08:30.971Z,7.00
2022-08-07T06:10:59.509Z,7.50
2022-08-07T06:14:10.795Z,7.15
2022-08-07T06:16:18.835Z,6.80
2022-08-07T06:18:51.814Z,7.80
2022-08-07T06:22:16.647Z,8.43
2022-08-07T06:24:46.034Z,6.25
2022-08-07T06:26:55.807Z,8.73
2022-08-07T06:29:27.887Z,5.80
2022-08-07T06:31:55.920Z,6.32
2022-08-07T06:34:29.805Z,8.13
2022-08-07T06:36:57.057Z,7.95
2022-08-07T06:40:13.051Z,6.05
2022-08-07T06:42:39.899Z,6.80
2022-08-07T06:45:13.323Z,6.97
2022-08-07T06:47:57.396Z,8.95
2022-08-07T06:50:26.956Z,6.38
2022-08-07T06:52:58.045Z,6.43
2022-08-07T06:55:54.021Z,7.57
2022-08-07T06:58:16.671Z,6.82
2022-08-07T07:00:48.310Z,7.53
2022-08-07T07:03:26.512Z,6.80
2022-08-07T07:06:10.972Z,6.70
2022-08-07T07:08:39.761Z,5.95
2022-08-07T07:12:08.494Z,5.88
2022-08-07T07:14:02.262Z,5.72
2022-08-07T07:16:33.345Z,5.32
2022-08-07T07:19:11.441Z,6.05
2022-08-07T07:22:05.431Z,5.57
2022-08-07T07:24:43.234Z,5.25
2022-08-07T07:27:35.845Z,6.15
2022-08-07T07:30:32.783Z,4.97
2022-08-07T07:33:03.745Z,5.10
2022-08-07T07:35:33.750Z,7.22
2022-08-07T07:38:20.595Z,4.75
2022-08-07T07:40:50.296Z,5.22
2022-08-07T07:43:18.730Z,4.80
2022-08-07T07:46:37.884Z,4.80
2022-08-07T07:48:42.532Z,4.28
2022-08-07T07:51:12.859Z,6.88
2022-08-07T07:53:51.683Z,5.20
2022-08-07T07:56:29.792Z,4.13
2022-08-07T07:58:59.627Z,4.90
2022-08-07T08:02:01.610Z,3.95
2022-08-07T08:04:17.294Z,4.68
2022-08-07T08:06:50.681Z,4.57
2022-08-07T08:09:23.203Z,4.10
2022-08-07T08:12:02.413Z,3.63
2022-08-07T08:14:36.492Z,4.45
2022-08-07T08:18:36.432Z,4.82
2022-08-07T08:20:17.030Z,4.30
2022-08-07T08:23:08.219Z,4.32
2022-08-07T08:25:56.637Z,4.20
2022-08-07T08:28:38.627Z,8.60
2022-08-07T08:31:13.844Z,4.68
2022-08-07T08:33:49.579Z,5.13
2022-08-07T08:36:30.022Z,4.47
2022-08-07T08:38:59.986Z,4.38
2022-08-07T08:41:58.762Z,6.40
2022-08-07T08:44:48.582Z,4.97
2022-08-07T08:47:26.892Z,4.80
2022-08-07T08:50:08.800Z,4.65
2022-08-07T08:52:54.078Z,5.00
2022-08-07T08:55:55.379Z,6.85
2022-08-07T08:58:32.869Z,7.03
2022-08-07T09:01:15.334Z,5.90
2022-08-07T09:03:55.314Z,4.45
2022-08-07T09:06:36.708Z,6.13
2022-08-07T09:09:23.604Z,5.00
2022-08-07T09:12:20.083Z,3.83
2022-08-07T09:16:20.082Z,4.03
2022-08-07T09:18:40.371Z,6.22
2022-08-07T09:21:34.470Z,4.80
2022-08-07T09:24:55.985Z,5.60
2022-08-07T09:27:59.700Z,3.47
2022-08-07T09:30:55.091Z,6.18
2022-08-07T09:33:56.817Z,6.32
2022-08-07T09:36:28.565Z,7.28
2022-08-07T09:42:24.945Z,4.57
2022-08-07T09:47:25.642Z,5.88
2022-08-07T09:48:50.248Z,7.55
2022-08-07T09:52:15.777Z,4.30
2022-08-07T09:54:48.237Z,4.97
2022-08-07T09:57:31.708Z,4.32
2022-08-07T10:00:14.998Z,5.22
2022-08-07T10:02:56.605Z,5.22
2022-08-07T10:06:00.895Z,7.15
2022-08-07T10:08:44.406Z,4.35
2022-08-07T10:12:03.094Z,5.38
2022-08-07T10:15:15.366Z,4.78
2022-08-07T10:18:01.179Z,4.78
2022-08-07T10:20:50.808Z,4.32
2022-08-07T10:24:06.372Z,4.15
2022-08-07T10:27:01.043Z,38.10
2022-08-07T10:29:54.997Z,7.70
2022-08-07T10:32:36.788Z,22.58
2022-08-07T10:36:05.525Z,10.95
2022-08-07T10:38:58.189Z,7.10
2022-08-07T10:41:52.393Z,5.03
2022-08-07T10:44:38.309Z,5.10
2022-08-07T10:47:52.524Z,7.60
2022-08-07T10:50:34.630Z,3.83
2022-08-07T10:53:27.656Z,4.53
2022-08-07T10:56:30.107Z,3.75
2022-08-07T10:59:30.402Z,5.28
2022-08-07T11:02:32.764Z,3.60
2022-08-07T11:05:50.433Z,3.75
2022-08-07T11:08:36.645Z,4.88
2022-08-07T11:11:20.273Z,4.10
2022-08-07T11:14:44.639Z,3.88
2022-08-07T11:17:23.474Z,3.55
2022-08-07T11:20:24.506Z,4.13
2022-08-07T11:23:09.256Z,3.83
2022-08-07T11:25:49.814Z,3.88
2022-08-07T11:28:24.859Z,4.15
2022-08-07T11:30:51.430Z,3.05
2022-08-07T11:33:54.354Z,4.57
2022-08-07T11:36:40.796Z,3.45
2022-08-07T11:39:07.462Z,3.22
2022-08-07T11:42:01.330Z,7.03
2022-08-07T11:44:52.736Z,3.63
2022-08-07T11:48:05.976Z,3.65
2022-08-07T11:51:41.717Z,3.80
2022-08-07T11:54:10.250Z,3.63
2022-08-07T11:56:53.228Z,2.90
2022-08-07T12:00:11.876Z,2.85
2022-08-07T12:03:00.170Z,3.60
2022-08-07T12:05:58.352Z,3.55
2022-08-07T12:08:37.892Z,3.35
2022-08-07T12:11:20.718Z,5.93
2022-08-07T12:14:13.131Z,3.33
2022-08-07T12:16:53.743Z,4.00
2022-08-07T12:20:02.794Z,3.45
2022-08-07T12:23:09.103Z,3.78
2022-08-07T12:26:06.271Z,3.63
2022-08-07T12:28:54.959Z,3.55
2022-08-07T12:31:53.340Z,3.28
2022-08-07T12:34:26.018Z,4.38
2022-08-07T12:36:56.405Z,3.95
2022-08-07T12:39:42.698Z,4.22
2022-08-07T12:42:13.352Z,5.63
2022-08-07T12:44:45.245Z,3.08
2022-08-07T12:47:37.543Z,2.85
2022-08-07T12:50:39.235Z,3.88
2022-08-07T12:53:19.251Z,3.35
2022-08-07T12:56:17.184Z,5.68
2022-08-07T12:58:46.861Z,3.50
2022-08-07T13:01:32.132Z,4.55
2022-08-07T13:04:33.998Z,3.10
2022-08-07T13:08:12.051Z,2.30
2022-08-07T13:10:29.301Z,4.25
2022-08-07T13:13:02.264Z,4.32
2022-08-07T13:15:43.023Z,3.30
2022-08-07T13:18:44.510Z,3.92
2022-08-07T13:21:50.331Z,3.25
2022-08-07T13:24:54.109Z,4.28
2022-08-07T13:28:05.855Z,3.35
2022-08-07T13:30:19.004Z,3.92
2022-08-07T13:32:55.342Z,3.75
2022-08-07T13:35:59.523Z,3.20
2022-08-07T13:38:41.904Z,4.95
2022-08-07T13:41:16.535Z,3.03
2022-08-07T13:43:52.686Z,4.57
2022-08-07T13:46:32.825Z,6.93
2022-08-07T13:49:04.127Z,3.85
2022-08-07T13:52:23.016Z,4.35
2022-08-07T13:54:30.476Z,3.70
2022-08-07T13:57:02.661Z,2.88
2022-08-07T13:59:34.592Z,3.88
2022-08-07T14:02:10.490Z,3.38
2022-08-07T14:04:50.076Z,3.00
2022-08-07T14:07:33.598Z,4.07
2022-08-07T14:10:20.419Z,6.00
2022-08-07T14:13:02.930Z,3.80
2022-08-07T14:15:39.489Z,4.72
2022-08-07T14:18:30.741Z,5.63
2022-08-07T14:22:00.743Z,3.08
2022-08-07T14:24:06.722Z,3.25
2022-08-07T14:26:39.276Z,4.18
2022-08-07T14:30:08.043Z,4.28
2022-08-07T14:32:01.588Z,4.20
2022-08-07T14:34:30.881Z,4.55
2022-08-07T14:37:03.163Z,4.25
2022-08-07T14:40:16.418Z,3.20
2022-08-07T14:42:32.621Z,3.83
2022-08-07T14:45:21.432Z,4.28
2022-08-07T14:47:53.044Z,4.75
2022-08-07T14:50:28.027Z,3.17
2022-08-07T14:52:56.646Z,3.80
2022-08-07T14:55:35.528Z,4.20
2022-08-07T14:58:27.241Z,3.22
2022-08-07T15:00:55.397Z,4.13
2022-08-07T15:03:52.339Z,3.25
2022-08-07T15:06:15.303Z,3.55
2022-08-07T15:08:50.418Z,4.30
2022-08-07T15:11:54.112Z,3.33
2022-08-07T15:20:31.561Z,3.85
2022-08-07T15:25:55.498Z,3.80
2022-08-07T15:32:00.685Z,3.58
2022-08-07T15:34:02.819Z,3.67
2022-08-07T15:42:46.003Z,2.50
2022-08-07T15:44:53.336Z,3.40
2022-08-07T15:48:00.380Z,3.72
2022-08-07T15:51:01.247Z,2.70
2022-08-07T15:53:15.223Z,2.83
2022-08-07T15:56:02.524Z,2.60
2022-08-07T15:58:38.536Z,2.50
2022-08-07T16:01:12.515Z,3.10
2022-08-07T16:03:46.401Z,4.47
2022-08-07T16:06:14.697Z,2.80
2022-08-07T16:08:45.628Z,2.47
2022-08-07T16:11:41.500Z,3.25
2022-08-07T16:14:34.344Z,3.13
2022-08-07T16:18:00.813Z,5.75
2022-08-07T16:21:44.044Z,4.80
2022-08-07T16:23:58.850Z,2.67
2022-08-07T16:26:30.945Z,2.33
2022-08-07T16:30:11.167Z,2.40
2022-08-07T16:32:32.946Z,5.68
2022-08-07T16:35:57.024Z,2.55
2022-08-07T16:38:19.284Z,4.47
2022-08-07T16:41:18.276Z,3.80
2022-08-07T16:44:40.554Z,3.22
2022-08-07T16:47:25.191Z,2.65
2022-08-07T16:50:35.740Z,2.42
2022-08-07T16:54:02.608Z,4.82
2022-08-07T16:56:49.804Z,3.10
2022-08-07T16:59:46.681Z,2.65
2022-08-07T17:02:53.633Z,2.67
2022-08-07T17:06:02.264Z,3.05
2022-08-07T17:09:04.394Z,2.67
2022-08-07T17:12:04.936Z,7.68
2022-08-07T17:15:05.984Z,2.67
2022-08-07T17:17:44.255Z,3.10
2022-08-07T17:20:22.205Z,4.55
2022-08-07T17:23:02.611Z,3.50
2022-08-07T17:25:52.276Z,2.90
2022-08-07T17:28:57.652Z,4.20
2022-08-07T17:31:44.276Z,4.53
2022-08-07T17:35:08.858Z,3.20
2022-08-07T17:38:06.897Z,4.30
2022-08-07T17:40:43.329Z,5.53
2022-08-07T17:43:39.663Z,4.10
2022-08-07T17:46:37.999Z,3.22
2022-08-07T17:49:44.601Z,3.95
2022-08-07T17:52:41.139Z,3.35
2022-08-07T17:55:12.655Z,3.38
2022-08-07T17:58:08.159Z,2.92
2022-08-07T18:00:48.803Z,4.35
2022-08-07T18:03:21.508Z,3.05
2022-08-07T18:06:02.691Z,2.47
2022-08-07T18:09:01.295Z,3.03
2022-08-07T18:12:17.898Z,2.90
2022-08-07T18:14:50.898Z,3.65
2022-08-07T18:18:47.642Z,3.55
2022-08-07T18:21:08.290Z,2.92
2022-08-07T18:23:43.321Z,4.60
2022-08-07T18:26:16.302Z,2.80
2022-08-07T18:28:58.545Z,3.25
2022-08-07T18:31:40.599Z,3.08
2022-08-07T18:35:01.536Z,5.90
2022-08-07T18:38:59.265Z,3.10
2022-08-07T18:41:09.408Z,3.10
2022-08-07T18:43:57.652Z,3.42
2022-08-07T18:46:37.338Z,2.60
2022-08-07T18:50:32.315Z,4.38
2022-08-07T18:52:53.690Z,2.80
2022-08-07T18:55:42.931Z,4.45
2022-08-07T18:58:51.772Z,3.42
2022-08-07T19:02:32.905Z,3.05
2022-08-07T19:04:57.874Z,5.45
2022-08-07T19:07:59.356Z,4.72
2022-08-07T19:10:51.221Z,3.13
2022-08-07T19:13:34.015Z,3.58
2022-08-07T19:16:43.640Z,4.82
2022-08-07T19:19:16.181Z,3.15
2022-08-07T19:22:04.607Z,3.65
2022-08-07T19:24:48.805Z,4.35
2022-08-07T19:28:30.086Z,4.00
2022-08-07T19:31:01.926Z,3.38
2022-08-07T19:33:08.312Z,3.38
2022-08-07T19:35:42.044Z,4.18
2022-08-07T19:38:16.742Z,3.28
2022-08-07T19:40:49.945Z,4.13
2022-08-07T19:43:43.623Z,3.33
2022-08-07T19:46:22.351Z,4.10
2022-08-07T19:49:04.512Z,5.97
2022-08-07T19:51:52.760Z,5.13
2022-08-07T19:54:34.191Z,4.28
2022-08-07T19:58:00.143Z,5.63
2022-08-07T20:00:08.833Z,5.82
2022-08-07T20:02:52.142Z,4.22
2022-08-07T20:05:28.127Z,5.15
2022-08-07T20:08:04.727Z,4.05
2022-08-07T20:10:54.368Z,5.65
2022-08-07T20:13:42.162Z,4.32
2022-08-07T20:16:22.435Z,4.65
2022-08-07T20:18:59.303Z,4.05
2022-08-07T20:21:41.728Z,5.22
2022-08-07T20:24:28.832Z,5.35
2022-08-07T20:27:01.954Z,3.90
2022-08-07T20:29:49.402Z,5.28
2022-08-07T20:32:25.220Z,5.55
2022-08-07T20:34:56.044Z,5.57
2022-08-07T20:37:59.262Z,4.53
2022-08-07T20:40:37.434Z,4.47
2022-08-07T20:43:16.953Z,4.13
2022-08-07T20:46:27.105Z,3.83
2022-08-07T20:49:53.995Z,4.97
2022-08-07T20:51:30.838Z,4.40
2022-08-07T20:54:15.158Z,4.05
2022-08-07T20:56:46.227Z,6.45
2022-08-07T21:00:05.541Z,5.93
2022-08-07T21:02:31.659Z,3.67
2022-08-07T21:07:28.179Z,6.07
2022-08-07T21:10:00.392Z,5.60
2022-08-07T21:12:31.757Z,5.20
2022-08-07T21:15:02.455Z,5.38
2022-08-07T21:18:01.929Z,5.50
2022-08-07T21:20:29.885Z,6.43
2022-08-07T21:23:08.389Z,5.65
2022-08-07T21:26:03.112Z,5.00
2022-08-07T21:28:48.281Z,5.95
2022-08-07T21:32:10.956Z,7.75
2022-08-07T21:34:33.330Z,6.47
2022-08-07T21:37:07.763Z,4.72
2022-08-07T21:39:44.739Z,9.05
2022-08-07T21:42:42.246Z,6.18
2022-08-07T21:46:08.117Z,5.45
2022-08-07T21:48:28.261Z,5.93
2022-08-07T21:51:02.008Z,4.07
2022-08-07T21:53:46.478Z,5.68
2022-08-07T21:56:39.595Z,4.68
2022-08-07T21:59:29.660Z,4.35
2022-08-07T22:02:11.315Z,5.93
2022-08-07T22:04:53.470Z,6.03
2022-08-07T22:07:31.870Z,6.63
2022-08-07T22:10:14.398Z,4.35
2022-08-07T22:12:59.383Z,4.53
2022-08-07T22:16:38.653Z,5.63
2022-08-07T22:18:24.151Z,5.05
2022-08-07T22:21:14.436Z,5.43
2022-08-07T22:23:47.900Z,5.32
2022-08-07T22:29:15.058Z,7.70
2022-08-07T22:32:05.561Z,6.78
2022-08-07T22:34:41.045Z,5.50
2022-08-07T22:38:03.311Z,5.07
2022-08-07T22:40:49.736Z,6.72
2022-08-07T22:43:23.445Z,5.93
2022-08-07T22:47:02.265Z,3.97
2022-08-07T22:49:33.993Z,8.27
2022-08-07T22:52:36.848Z,6.28
2022-08-07T22:55:30.809Z,5.35
2022-08-07T22:58:02.809Z,4.85
2022-08-07T23:00:40.749Z,6.38
2022-08-07T23:03:58.062Z,8.02
2022-08-07T23:10:04.644Z,7.60
2022-08-07T23:12:36.907Z,10.82
2022-08-07T23:15:03.544Z,6.95
2022-08-07T23:18:02.224Z,8.60
2022-08-07T23:20:51.258Z,6.43
2022-08-07T23:24:06.554Z,5.72
2022-08-07T23:26:19.188Z,5.47
2022-08-07T23:30:36.227Z,5.35
2022-08-07T23:34:35.551Z,6.43
2022-08-07T23:35:54.323Z,5.85
2022-08-07T23:38:36.948Z,6.95
2022-08-07T23:42:02.079Z,4.70
2022-08-07T23:44:54.523Z,5.55
2022-08-07T23:47:42.245Z,6.28
2022-08-07T23:50:22.732Z,6.70
2022-08-07T23:53:08.674Z,6.93
2022-08-07T23:55:54.262Z,7.18
2022-08-07T23:58:38.439Z,7.53
